createdAt,value
2022-09-26T00:00:47.249Z,71.10
2022-09-26T00:03:15.079Z,71.24
2022-09-26T00:05:44.249Z,71.28
2022-09-26T00:08:12.131Z,71.56
2022-09-26T00:10:39.786Z,71.65
2022-09-26T00:13:07.616Z,71.85
2022-09-26T00:15:35.309Z,71.82
2022-09-26T00:18:02.932Z,71.89
2022-09-26T00:20:30.640Z,71.76
2022-09-26T00:23:00.157Z,71.71
2022-09-26T00:25:27.847Z,71.95
2022-09-26T00:27:55.571Z,72.04
2022-09-26T00:30:23.269Z,72.46
2022-09-26T00:32:50.959Z,72.32
2022-09-26T00:35:18.667Z,72.27
2022-09-26T00:37:46.301Z,72.24
2022-09-26T00:40:16.302Z,72.15
2022-09-26T00:42:44.005Z,72.00
2022-09-26T00:45:11.919Z,72.19
2022-09-26T00:47:45.506Z,72.29
2022-09-26T00:50:18.276Z,72.08
2022-09-26T00:52:49.330Z,72.05
2022-09-26T00:55:20.550Z,72.03
2022-09-26T00:57:51.593Z,72.10
2022-09-26T01:00:19.465Z,72.55
2022-09-26T01:02:48.069Z,72.20
2022-09-26T01:05:19.034Z,72.01
2022-09-26T01:07:47.291Z,72.34
2022-09-26T01:10:15.529Z,71.83
2022-09-26T01:12:45.045Z,71.88
2022-09-26T01:15:13.458Z,72.08
2022-09-26T01:17:42.993Z,71.94
2022-09-26T01:20:27.856Z,71.87
2022-09-26T01:23:18.854Z,71.96
2022-09-26T01:26:02.599Z,72.12
2022-09-26T01:28:42.670Z,71.64
2022-09-26T01:31:18.306Z,71.87
2022-09-26T01:34:00.044Z,72.32
2022-09-26T01:36:55.778Z,71.79
2022-09-26T01:39:37.254Z,71.92
2022-09-26T01:42:12.433Z,71.97
2022-09-26T01:44:42.605Z,72.13
2022-09-26T01:47:14.727Z,72.06
2022-09-26T01:49:49.271Z,72.60
2022-09-26T01:52:20.643Z,72.59
2022-09-26T01:54:52.967Z,72.67
2022-09-26T01:57:24.721Z,72.86
2022-09-26T01:59:56.057Z,73.23
2022-09-26T02:02:27.403Z,73.41
2022-09-26T02:04:58.802Z,73.76
2022-09-26T02:07:32.628Z,74.47
2022-09-26T02:10:03.620Z,75.08
2022-09-26T02:12:34.025Z,75.12
2022-09-26T02:15:03.137Z,75.54
2022-09-26T02:17:35.093Z,75.66
2022-09-26T02:20:07.350Z,75.84
2022-09-26T02:22:35.909Z,75.83
2022-09-26T02:25:04.942Z,75.69
2022-09-26T02:27:32.754Z,75.58
2022-09-26T02:30:00.668Z,75.48
2022-09-26T02:32:30.618Z,75.80
2022-09-26T02:35:00.328Z,75.89
2022-09-26T02:37:29.042Z,76.09
2022-09-26T02:39:57.126Z,75.74
2022-09-26T02:42:28.546Z,75.97
2022-09-26T02:45:15.798Z,75.47
2022-09-26T02:48:12.888Z,75.80
2022-09-26T02:50:54.810Z,75.37
2022-09-26T02:53:36.743Z,75.60
2022-09-26T02:56:09.585Z,75.69
2022-09-26T02:58:47.582Z,75.35
2022-09-26T03:01:18.588Z,75.91
2022-09-26T03:03:51.592Z,76.07
2022-09-26T03:06:24.694Z,75.74
2022-09-26T03:08:52.725Z,75.49
2022-09-26T03:11:23.244Z,75.61
2022-09-26T03:13:53.990Z,75.55
2022-09-26T03:16:22.258Z,75.19
2022-09-26T03:18:53.579Z,75.19
2022-09-26T03:21:22.938Z,75.13
2022-09-26T03:23:50.829Z,75.30
2022-09-26T03:26:22.476Z,74.99
2022-09-26T03:28:51.743Z,74.89
2022-09-26T03:31:20.755Z,74.62
2022-09-26T03:33:48.482Z,74.56
2022-09-26T03:36:16.492Z,74.34
2022-09-26T03:38:45.613Z,74.18
2022-09-26T03:41:13.382Z,74.80
2022-09-26T03:43:43.911Z,74.29
2022-09-26T03:46:12.957Z,74.21
2022-09-26T03:48:41.123Z,74.24
2022-09-26T03:51:10.133Z,73.95
2022-09-26T03:53:39.687Z,73.89
2022-09-26T03:56:10.477Z,73.81
2022-09-26T03:58:38.838Z,74.10
2022-09-26T04:01:08.155Z,73.88
2022-09-26T04:03:36.671Z,73.96
2022-09-26T04:06:05.062Z,73.75
2022-09-26T04:08:32.741Z,73.72
2022-09-26T04:11:04.236Z,73.46
2022-09-26T04:13:50.514Z,73.34
2022-09-26T04:16:20.945Z,73.68
2022-09-26T04:18:48.751Z,73.60
2022-09-26T04:21:16.681Z,72.90
2022-09-26T04:23:45.295Z,73.09
2022-09-26T04:26:20.123Z,73.61
2022-09-26T04:28:55.323Z,73.54
2022-09-26T04:31:23.931Z,73.96
2022-09-26T04:33:52.195Z,73.70
2022-09-26T04:36:19.886Z,73.93
2022-09-26T04:38:47.702Z,74.49
2022-09-26T04:41:16.513Z,74.50
2022-09-26T04:43:44.615Z,74.39
2022-09-26T04:46:20.093Z,75.09
2022-09-26T04:48:50.064Z,75.04
2022-09-26T04:51:19.103Z,75.19
2022-09-26T04:53:47.013Z,74.71
2022-09-26T04:56:16.119Z,75.03
2022-09-26T04:58:44.908Z,74.84
2022-09-26T05:01:15.478Z,75.13
2022-09-26T05:03:43.181Z,74.75
2022-09-26T05:06:11.901Z,74.94
2022-09-26T05:08:41.244Z,75.09
2022-09-26T05:11:10.238Z,74.94
2022-09-26T05:13:38.899Z,74.54
2022-09-26T05:16:08.618Z,74.68
2022-09-26T05:18:39.244Z,74.52
2022-09-26T05:21:07.667Z,74.60
2022-09-26T05:23:53.866Z,74.38
2022-09-26T05:26:23.526Z,74.23
2022-09-26T05:28:52.999Z,74.20
2022-09-26T05:31:22.239Z,74.44
2022-09-26T05:33:51.553Z,74.11
2022-09-26T05:36:19.466Z,74.00
2022-09-26T05:38:47.256Z,74.11
2022-09-26T05:41:14.276Z,74.03
2022-09-26T05:43:42.059Z,74.16
2022-09-26T05:46:10.878Z,73.85
2022-09-26T05:48:39.629Z,73.68
2022-09-26T05:51:11.048Z,73.76
2022-09-26T05:53:39.105Z,73.39
2022-09-26T05:56:07.708Z,73.71
2022-09-26T05:58:36.802Z,73.64
2022-09-26T06:01:06.543Z,73.32
2022-09-26T06:03:35.559Z,73.15
2022-09-26T06:06:05.269Z,73.04
2022-09-26T06:08:35.178Z,73.04
2022-09-26T06:11:03.651Z,73.01
2022-09-26T06:13:31.637Z,73.11
2022-09-26T06:16:05.565Z,72.79
2022-09-26T06:18:33.450Z,72.77
2022-09-26T06:21:03.574Z,72.68
2022-09-26T06:23:31.660Z,72.35
2022-09-26T06:26:01.530Z,72.50
2022-09-26T06:28:29.400Z,72.26
2022-09-26T06:30:57.708Z,72.34
2022-09-26T06:33:27.731Z,72.70
2022-09-26T06:36:02.460Z,72.65
2022-09-26T06:38:30.250Z,72.49
2022-09-26T06:40:58.072Z,72.66
2022-09-26T06:43:27.144Z,72.71
2022-09-26T06:45:54.794Z,73.09
2022-09-26T06:48:24.973Z,72.76
2022-09-26T06:50:53.037Z,72.84
2022-09-26T06:53:20.957Z,72.95
2022-09-26T06:55:48.762Z,73.34
2022-09-26T06:58:16.504Z,73.22
2022-09-26T07:00:45.742Z,73.24
2022-09-26T07:03:15.919Z,73.03
2022-09-26T07:05:43.753Z,73.28
2022-09-26T07:08:11.515Z,73.27
2022-09-26T07:10:39.206Z,73.33
2022-09-26T07:13:09.431Z,73.05
2022-09-26T07:15:37.832Z,73.09
2022-09-26T07:18:07.855Z,73.46
2022-09-26T07:20:38.026Z,73.30
2022-09-26T07:23:06.564Z,73.31
2022-09-26T07:25:34.181Z,73.38
2022-09-26T07:28:02.595Z,73.38
2022-09-26T07:30:30.276Z,72.75
2022-09-26T07:33:00.481Z,72.62
2022-09-26T07:35:29.608Z,72.53
2022-09-26T07:37:58.220Z,72.85
2022-09-26T07:40:25.924Z,72.34
2022-09-26T07:43:15.283Z,72.66
2022-09-26T07:45:58.893Z,72.70
2022-09-26T07:48:44.272Z,73.18
2022-09-26T07:51:13.398Z,72.92
2022-09-26T07:53:41.229Z,72.62
2022-09-26T07:56:11.278Z,73.01
2022-09-26T07:58:41.113Z,73.07
2022-09-26T08:01:11.510Z,73.38
2022-09-26T08:03:39.650Z,73.08
2022-09-26T08:06:07.725Z,73.48
2022-09-26T08:08:37.306Z,73.52
2022-09-26T08:11:05.844Z,73.59
2022-09-26T08:13:34.071Z,73.34
2022-09-26T08:16:06.286Z,73.20
2022-09-26T08:18:34.418Z,73.77
2022-09-26T08:21:05.652Z,73.81
2022-09-26T08:23:33.859Z,74.23
2022-09-26T08:26:06.830Z,74.00
2022-09-26T08:28:35.150Z,73.78
2022-09-26T08:31:05.162Z,73.87
2022-09-26T08:33:35.438Z,74.33
2022-09-26T08:36:07.869Z,74.67
2022-09-26T08:38:36.544Z,74.68
2022-09-26T08:41:14.076Z,75.20
2022-09-26T08:43:53.201Z,75.42
2022-09-26T08:46:44.108Z,75.75
2022-09-26T08:50:00.054Z,76.18
2022-09-26T08:52:36.518Z,76.10
2022-09-26T08:55:09.520Z,76.22
2022-09-26T08:57:41.629Z,76.10
2022-09-26T09:00:19.948Z,76.47
2022-09-26T09:02:57.481Z,76.81
2022-09-26T09:05:28.610Z,76.64
2022-09-26T09:07:59.243Z,76.70
2022-09-26T09:10:40.099Z,76.54
2022-09-26T09:13:16.584Z,76.96
2022-09-26T09:15:54.249Z,76.97
2022-09-26T09:18:29.287Z,77.16
2022-09-26T09:21:01.298Z,77.04
2022-09-26T09:23:52.216Z,76.94
2022-09-26T09:29:31.330Z,77.44
2022-09-26T09:32:01.658Z,77.32
2022-09-26T09:34:32.719Z,77.59
2022-09-26T09:37:04.099Z,77.49
2022-09-26T09:39:34.683Z,77.68
2022-09-26T09:42:06.000Z,77.61
2022-09-26T09:44:46.744Z,78.23
2022-09-26T09:47:15.729Z,77.99
2022-09-26T09:49:43.945Z,78.17
2022-09-26T09:52:22.206Z,78.27
2022-09-26T09:54:59.447Z,78.21
2022-09-26T09:57:54.497Z,78.14
2022-09-26T10:00:24.509Z,78.03
2022-09-26T10:03:00.224Z,78.44
2022-09-26T10:05:38.994Z,78.39
2022-09-26T10:08:13.115Z,78.64
2022-09-26T10:10:44.170Z,79.05
2022-09-26T10:13:12.113Z,78.89
2022-09-26T10:15:46.038Z,78.94
2022-09-26T10:18:25.374Z,79.39
2022-09-26T10:20:55.287Z,79.20
2022-09-26T10:23:26.434Z,79.32
2022-09-26T10:26:00.652Z,79.56
2022-09-26T10:28:35.838Z,79.61
2022-09-26T10:31:08.409Z,79.84
2022-09-26T10:33:38.215Z,79.84
2022-09-26T10:36:13.206Z,80.07
2022-09-26T10:39:10.551Z,79.63
2022-09-26T10:41:42.493Z,79.55
2022-09-26T10:44:23.457Z,79.80
2022-09-26T10:47:17.759Z,79.89
2022-09-26T10:49:51.053Z,79.61
2022-09-26T10:52:23.688Z,79.85
2022-09-26T10:54:57.965Z,80.21
2022-09-26T10:57:29.472Z,79.90
2022-09-26T10:59:59.090Z,80.40
2022-09-26T11:02:28.970Z,80.28
2022-09-26T11:05:17.112Z,80.36
2022-09-26T11:07:47.393Z,80.48
2022-09-26T11:10:17.767Z,80.95
2022-09-26T11:13:03.812Z,80.71
2022-09-26T11:15:31.820Z,81.00
2022-09-26T11:18:01.409Z,80.99
2022-09-26T11:20:36.905Z,81.56
2022-09-26T11:23:11.376Z,81.45
2022-09-26T11:25:50.107Z,81.69
2022-09-26T11:28:23.770Z,82.15
2022-09-26T11:30:55.520Z,82.20
2022-09-26T11:33:25.401Z,82.46
2022-09-26T11:36:03.826Z,82.46
2022-09-26T11:38:39.146Z,82.60
2022-09-26T11:41:36.745Z,82.80
2022-09-26T11:44:29.993Z,83.43
2022-09-26T11:47:09.143Z,83.24
2022-09-26T11:50:06.260Z,83.49
2022-09-26T11:52:45.590Z,83.52
2022-09-26T11:55:24.120Z,83.75
2022-09-26T11:58:03.544Z,83.83
2022-09-26T12:00:38.426Z,83.85
2022-09-26T12:03:38.918Z,84.15
2022-09-26T12:06:18.109Z,84.28
2022-09-26T12:09:13.581Z,84.20
2022-09-26T12:11:47.943Z,84.85
2022-09-26T12:14:29.594Z,84.68
2022-09-26T12:17:02.832Z,85.17
2022-09-26T12:19:35.847Z,85.70
2022-09-26T12:22:27.173Z,85.63
2022-09-26T12:25:03.302Z,85.82
2022-09-26T12:27:36.169Z,85.66
2022-09-26T12:30:07.429Z,85.92
2022-09-26T12:32:55.532Z,85.91
2022-09-26T12:35:35.903Z,86.03
2022-09-26T12:38:24.451Z,85.93
2022-09-26T12:40:58.495Z,86.06
2022-09-26T12:43:42.201Z,86.16
2022-09-26T12:46:19.008Z,86.11
2022-09-26T12:48:59.121Z,85.94
2022-09-26T12:51:36.442Z,86.25
2022-09-26T12:54:33.235Z,86.28
2022-09-26T13:01:06.516Z,86.17
2022-09-26T13:03:56.663Z,86.52
2022-09-26T13:07:07.680Z,86.43
2022-09-26T13:09:45.549Z,86.95
2022-09-26T13:12:21.114Z,87.08
2022-09-26T13:15:08.448Z,87.12
2022-09-26T13:17:41.368Z,87.22
2022-09-26T13:20:15.945Z,86.86
2022-09-26T13:22:47.270Z,86.94
2022-09-26T13:25:19.618Z,86.98
2022-09-26T13:27:54.561Z,87.08
2022-09-26T13:30:26.298Z,87.13
2022-09-26T13:33:00.752Z,87.34
2022-09-26T13:35:29.916Z,87.15
2022-09-26T13:38:14.226Z,87.45
2022-09-26T13:40:49.445Z,87.51
2022-09-26T13:43:26.017Z,87.49
2022-09-26T13:46:00.066Z,87.39
2022-09-26T13:48:38.729Z,87.93
2022-09-26T13:51:12.092Z,87.71
2022-09-26T13:53:44.814Z,87.92
2022-09-26T13:56:44.574Z,87.99
2022-09-26T13:59:26.160Z,88.22
2022-09-26T14:02:16.783Z,88.01
2022-09-26T14:04:46.390Z,88.05
2022-09-26T14:07:33.301Z,88.11
2022-09-26T14:10:26.299Z,87.97
2022-09-26T14:13:08.415Z,87.98
2022-09-26T14:15:58.279Z,88.22
2022-09-26T14:18:50.352Z,88.08
2022-09-26T14:21:37.121Z,87.91
2022-09-26T14:24:28.125Z,88.16
2022-09-26T14:27:05.046Z,88.20
2022-09-26T14:29:38.019Z,88.07
2022-09-26T14:32:14.961Z,88.01
2022-09-26T14:34:43.679Z,88.00
2022-09-26T14:37:33.308Z,87.90
2022-09-26T14:40:23.309Z,87.87
2022-09-26T14:42:53.958Z,88.04
2022-09-26T14:45:24.925Z,88.18
2022-09-26T14:48:01.616Z,87.81
2022-09-26T14:50:32.191Z,88.44
2022-09-26T14:53:03.897Z,88.06
2022-09-26T14:55:32.221Z,88.09
2022-09-26T14:58:18.461Z,88.33
2022-09-26T15:00:47.824Z,88.43
2022-09-26T15:03:17.708Z,88.54
2022-09-26T15:05:46.152Z,88.58
2022-09-26T15:08:25.390Z,88.79
2022-09-26T15:10:54.395Z,88.51
2022-09-26T15:13:26.489Z,88.65
2022-09-26T15:15:59.776Z,88.74
2022-09-26T15:18:39.044Z,88.49
2022-09-26T15:21:26.403Z,88.54
2022-09-26T15:23:56.837Z,88.69
2022-09-26T15:26:26.507Z,88.85
2022-09-26T15:28:56.526Z,88.95
2022-09-26T15:31:29.530Z,89.11
2022-09-26T15:34:01.388Z,89.06
2022-09-26T15:36:30.595Z,89.00
2022-09-26T15:38:59.919Z,88.83
2022-09-26T15:41:45.601Z,88.72
2022-09-26T15:44:20.513Z,89.09
2022-09-26T15:46:50.260Z,88.76
2022-09-26T15:49:22.358Z,88.61
2022-09-26T15:51:54.161Z,88.65
2022-09-26T15:54:27.217Z,88.83
2022-09-26T15:56:57.017Z,88.34
2022-09-26T15:59:27.531Z,88.19
2022-09-26T16:01:55.516Z,88.43
2022-09-26T16:04:27.107Z,88.51
2022-09-26T16:06:58.436Z,88.62
2022-09-26T16:09:32.334Z,88.78
2022-09-26T16:12:01.274Z,88.72
2022-09-26T16:14:39.249Z,89.01
2022-09-26T16:17:20.251Z,88.79
2022-09-26T16:19:50.020Z,88.96
2022-09-26T16:22:45.302Z,88.84
2022-09-26T16:25:29.468Z,88.76
2022-09-26T16:28:03.552Z,88.76
2022-09-26T16:30:39.246Z,88.94
2022-09-26T16:33:31.595Z,88.88
2022-09-26T16:36:15.102Z,88.90
2022-09-26T16:38:42.946Z,89.05
2022-09-26T16:41:48.844Z,89.21
2022-09-26T16:44:26.186Z,89.07
2022-09-26T16:46:58.742Z,89.33
2022-09-26T16:49:39.796Z,89.18
2022-09-26T16:52:22.522Z,89.19
2022-09-26T16:54:50.284Z,88.93
2022-09-26T16:57:21.512Z,89.10
2022-09-26T16:59:49.575Z,89.07
2022-09-26T17:02:17.039Z,89.11
2022-09-26T17:04:44.827Z,89.32
2022-09-26T17:07:15.139Z,89.20
2022-09-26T17:09:44.302Z,88.96
2022-09-26T17:12:19.579Z,89.03
2022-09-26T17:14:49.118Z,89.16
2022-09-26T17:17:21.683Z,89.15
2022-09-26T17:19:55.516Z,89.18
2022-09-26T17:22:26.626Z,89.18
2022-09-26T17:24:54.635Z,89.27
2022-09-26T17:27:26.918Z,88.92
2022-09-26T17:29:58.170Z,89.29
2022-09-26T17:32:29.482Z,89.23
2022-09-26T17:34:59.075Z,88.91
2022-09-26T17:37:27.335Z,89.10
2022-09-26T17:39:55.262Z,89.33
2022-09-26T17:42:25.176Z,89.27
2022-09-26T17:44:52.963Z,89.40
2022-09-26T17:47:20.806Z,89.19
2022-09-26T17:49:50.663Z,88.96
2022-09-26T17:52:25.231Z,88.92
2022-09-26T17:54:57.373Z,88.75
2022-09-26T17:57:28.833Z,88.85
2022-09-26T17:59:56.809Z,89.07
2022-09-26T18:02:33.215Z,88.86
2022-09-26T18:05:04.416Z,88.62
2022-09-26T18:07:35.285Z,88.79
2022-09-26T18:10:05.636Z,88.81
2022-09-26T18:12:35.677Z,88.99
2022-09-26T18:15:04.510Z,88.99
2022-09-26T18:17:32.426Z,88.98
2022-09-26T18:20:00.088Z,88.74
2022-09-26T18:22:31.059Z,89.04
2022-09-26T18:25:04.621Z,89.01
2022-09-26T18:27:36.617Z,88.85
2022-09-26T18:30:05.319Z,89.06
2022-09-26T18:32:36.096Z,88.62
2022-09-26T18:35:03.903Z,88.97
2022-09-26T18:37:31.610Z,88.73
2022-09-26T18:40:03.814Z,88.74
2022-09-26T18:42:32.976Z,88.80
2022-09-26T18:45:04.910Z,88.67
2022-09-26T18:47:36.572Z,88.90
2022-09-26T18:50:05.085Z,88.59
2022-09-26T18:52:32.733Z,88.60
2022-09-26T18:55:23.441Z,88.48
2022-09-26T18:58:08.754Z,88.70
2022-09-26T19:00:37.918Z,88.63
2022-09-26T19:03:05.673Z,88.37
2022-09-26T19:05:33.365Z,88.41
2022-09-26T19:08:06.389Z,88.68
2022-09-26T19:10:34.300Z,88.96
2022-09-26T19:13:02.646Z,88.74
2022-09-26T19:15:30.848Z,89.06
2022-09-26T19:17:59.992Z,88.98
2022-09-26T19:20:27.749Z,89.09
2022-09-26T19:22:58.378Z,88.66
2022-09-26T19:25:26.291Z,88.75
2022-09-26T19:27:54.020Z,88.96
2022-09-26T19:30:22.672Z,88.45
2022-09-26T19:32:52.306Z,88.43
2022-09-26T19:35:24.894Z,87.93
2022-09-26T19:37:52.812Z,87.98
2022-09-26T19:40:22.337Z,88.02
2022-09-26T19:42:50.393Z,88.01
2022-09-26T19:45:19.263Z,88.00
2022-09-26T19:47:48.151Z,88.17
2022-09-26T19:50:17.770Z,87.90
2022-09-26T19:52:47.134Z,88.01
2022-09-26T19:55:15.937Z,88.26
2022-09-26T19:57:43.692Z,88.18
2022-09-26T20:00:12.933Z,88.29
2022-09-26T20:02:40.995Z,88.33
2022-09-26T20:05:15.994Z,88.07
2022-09-26T20:07:44.500Z,88.43
2022-09-26T20:10:17.091Z,88.65
2022-09-26T20:12:44.927Z,88.66
2022-09-26T20:15:13.414Z,88.69
2022-09-26T20:17:43.130Z,88.30
2022-09-26T20:20:12.845Z,85.91
2022-09-26T20:22:42.441Z,85.27
2022-09-26T20:25:17.033Z,84.31
2022-09-26T20:27:44.912Z,84.09
2022-09-26T20:30:32.958Z,83.50
2022-09-26T20:33:00.971Z,84.23
2022-09-26T20:35:34.487Z,84.56
2022-09-26T20:38:06.061Z,85.32
2022-09-26T20:40:35.924Z,85.72
2022-09-26T20:43:06.719Z,85.20
2022-09-26T20:45:39.304Z,85.42
2022-09-26T20:48:08.709Z,85.53
2022-09-26T20:50:39.160Z,85.34
2022-09-26T20:53:10.719Z,85.00
2022-09-26T20:55:43.976Z,85.57
2022-09-26T20:58:12.102Z,85.59
2022-09-26T21:00:39.905Z,86.05
2022-09-26T21:03:08.289Z,86.11
2022-09-26T21:05:36.391Z,86.09
2022-09-26T21:08:07.419Z,86.79
2022-09-26T21:10:35.283Z,87.21
2022-09-26T21:13:04.384Z,87.24
2022-09-26T21:15:33.427Z,87.81
2022-09-26T21:20:15.127Z,87.65
2022-09-26T21:22:42.867Z,87.65
2022-09-26T21:25:16.006Z,87.97
2022-09-26T21:27:43.670Z,87.91
2022-09-26T21:30:15.467Z,88.17
2022-09-26T21:32:45.913Z,88.60
2022-09-26T21:35:16.830Z,88.52
2022-09-26T21:37:45.880Z,88.72
2022-09-26T21:40:13.892Z,88.86
2022-09-26T21:42:43.200Z,88.59
2022-09-26T21:45:12.927Z,88.54
2022-09-26T21:47:40.652Z,88.36
2022-09-26T21:50:09.562Z,88.17
2022-09-26T21:52:41.048Z,88.29
2022-09-26T21:55:11.995Z,88.53
2022-09-26T21:57:41.974Z,88.29
2022-09-26T22:00:11.451Z,88.08
2022-09-26T22:02:41.437Z,87.58
2022-09-26T22:05:09.866Z,87.71
2022-09-26T22:07:39.217Z,87.42
2022-09-26T22:10:08.659Z,87.58
2022-09-26T22:12:36.408Z,87.34
2022-09-26T22:15:04.434Z,86.93
2022-09-26T22:17:34.033Z,86.69
2022-09-26T22:20:01.859Z,86.68
2022-09-26T22:22:29.582Z,87.00
2022-09-26T22:25:03.229Z,86.68
2022-09-26T22:27:31.253Z,87.03
2022-09-26T22:29:58.837Z,87.09
2022-09-26T22:32:26.652Z,86.85
2022-09-26T22:34:54.304Z,87.14
2022-09-26T22:37:21.939Z,87.27
2022-09-26T22:39:49.579Z,87.07
2022-09-26T22:42:18.587Z,87.08
2022-09-26T22:44:46.205Z,86.89
2022-09-26T22:47:13.865Z,87.01
2022-09-26T22:49:41.582Z,87.10
2022-09-26T22:52:09.148Z,87.13
2022-09-26T22:54:36.786Z,87.03
2022-09-26T22:57:04.453Z,86.94
2022-09-26T22:59:33.490Z,87.10
2022-09-26T23:02:01.231Z,87.14
2022-09-26T23:04:46.776Z,86.94
2022-09-26T23:07:15.104Z,86.63
2022-09-26T23:09:42.687Z,86.82
2022-09-26T23:12:10.776Z,86.64
2022-09-26T23:14:39.863Z,86.42
2022-09-26T23:17:07.608Z,86.43
2022-09-26T23:19:35.322Z,86.49
2022-09-26T23:22:03.052Z,86.62
2022-09-26T23:24:30.679Z,86.54
2022-09-26T23:26:58.761Z,86.59
2022-09-26T23:29:26.445Z,86.85
2022-09-26T23:31:55.417Z,87.12
2022-09-26T23:34:23.437Z,86.68
2022-09-26T23:36:51.069Z,86.61
2022-09-26T23:39:18.734Z,86.96
2022-09-26T23:41:46.336Z,86.96
2022-09-26T23:44:13.937Z,86.41
2022-09-26T23:46:41.671Z,86.31
2022-09-26T23:49:10.783Z,86.26
2022-09-26T23:51:38.422Z,86.42
2022-09-26T23:54:06.357Z,86.37
2022-09-26T23:56:33.956Z,86.34
2022-09-26T23:59:01.622Z,86.30
